Home > Products > Valid Products > TAF

000
FTUS43 KDTX 020500
TAFDET
TAF
KDET 020520Z 0206/0306 14004KT 3SM BR BKN006 BKN014
     FM021400 16007KT P6SM BKN060 OVC150
     FM022000 16010KT P6SM BKN050 OVC100
     FM030200 17012KT P6SM BKN100 OVC200=



000
FTUS43 KDTX 020500
TAFDTW
TAF
KDTW 020520Z 0206/0312 15003KT 1 1/2SM BR BKN006 BKN014
     FM021400 16007KT P6SM BKN060 OVC150
     FM022000 16010KT P6SM BKN050 OVC100
     FM030200 17012KT P6SM BKN100 OVC200=



000
FTUS43 KDTX 020500
TAFMBS
TAF
KMBS 020520Z 0206/0306 14004KT 3SM BR SCT005
     FM021400 16007KT P6SM BKN060 OVC150
     FM022000 16010KT P6SM BKN050 OVC100
     FM030200 17012KT P6SM BKN100 OVC200=



000
FTUS43 KDTX 020500
TAFFNT
TAF
KFNT 020520Z 0206/0306 15004KT 1 1/2SM BR BKN006
     FM021400 16007KT P6SM BKN060 OVC150
     FM022000 16010KT P6SM BKN050 OVC100
     FM030200 17012KT P6SM BKN100 OVC200=



000
FTUS43 KDTX 020300 AAB
TAFDTW
TAF AMD
KDTW 020330Z 0204/0306 00000KT 5SM BR SCT010 BKN025
     FM020600 14004KT 3SM BR SCT005 BKN015
     FM020800 16004KT 1SM BR OVC005
     FM021400 16007KT P6SM BKN060 OVC150
     FM022200 16010KT P6SM BKN050 OVC100=



000
FTUS43 KDTX 020300 AAA
TAFDTW
TAF AMD
KDTW 020305Z 0203/0306 13003KT P6SM SCT025 BKN200
     FM020600 14004KT 4SM BR SCT005 BKN025
     FM020800 16004KT 1SM BR OVC005
     FM021400 16007KT P6SM BKN060 OVC150
     FM022200 16010KT P6SM BKN050 OVC100=



000
FTUS43 KDTX 012300
TAFDTW
TAF
KDTW 012327Z 0200/0306 13004KT P6SM FEW040 SCT200
     FM020200 15004KT P6SM BKN200
     FM020800 16004KT 1SM BR BKN005
     FM021400 16007KT P6SM BKN060 OVC150
     FM022200 16010KT P6SM BKN050 OVC100=



000
FTUS43 KDTX 012300
TAFMBS
TAF
KMBS 012327Z 0200/0224 13004KT P6SM FEW040 SCT200
     FM020200 15004KT P6SM BKN200
     FM020800 16004KT 3SM BR BKN008
     FM021400 16007KT P6SM BKN060 BKN150
     FM022100 17010KT P6SM BKN045 OVC090=



000
FTUS43 KDTX 012300
TAFDET
TAF
KDET 012327Z 0200/0224 13004KT P6SM FEW040 SCT200
     FM020200 15004KT P6SM BKN200
     FM020800 16004KT 2SM BR BKN007
     FM021400 16007KT P6SM BKN060 BKN150
     FM022100 16010KT P6SM BKN050 OVC100=



000
FTUS43 KDTX 012300
TAFFNT
TAF
KFNT 012327Z 0200/0224 13004KT P6SM FEW040 SCT200
     FM020200 15004KT P6SM BKN200
     FM020800 16004KT 3SM BR BKN008
     FM021400 16007KT P6SM BKN060 BKN150
     FM022100 17010KT P6SM BKN045 OVC090=



000
FTUS43 KDTX 012100 AAA
TAFDTW
TAF AMD
KDTW 012109Z 0121/0224 13004KT P6SM SCT040 BKN200
     FM020100 17004KT P6SM FEW035
     FM020600 16004KT 1SM BR OVC005
     FM021500 16007KT P6SM BKN060 OVC150=



000
FTUS43 KDTX 011700
TAFMBS
TAF
KMBS 011727Z 0118/0218 14005KT P6SM BKN022 BKN035
     FM012000 14006KT P6SM SCT030 BKN040
     FM020100 14004KT P6SM SCT035
     FM020800 16004KT 3SM BR OVC008
     FM021500 16007KT P6SM BKN060 OVC150=



000
FTUS43 KDTX 011700
TAFDTW
TAF
KDTW 011727Z 0118/0224 19004KT P6SM BKN040
     FM020100 17004KT P6SM SCT035
     FM020600 16004KT 1SM BR OVC005
     FM021500 16007KT P6SM BKN060 OVC150=



000
FTUS43 KDTX 011700
TAFDET
TAF
KDET 011727Z 0118/0218 17004KT P6SM BKN040
     FM020100 17004KT P6SM SCT035
     FM020600 16004KT 1SM BR OVC005
     FM021500 16007KT P6SM BKN060 OVC150=



000
FTUS43 KDTX 011700
TAFFNT
TAF
KFNT 011727Z 0118/0218 16005KT P6SM BKN035
     FM020100 12004KT P6SM SCT035
     FM020800 16004KT 3SM BR OVC008
     FM021500 16007KT P6SM BKN060 OVC150=



000
FTUS43 KDTX 011600 AAC
TAFMBS
TAF AMD
KMBS 011640Z 0117/0212 20004KT P6SM OVC004
     FM011800 VRB04KT P6SM OVC008
     FM011900 14005KT P6SM BKN022 BKN035
     FM012000 14006KT P6SM SCT030 BKN040
     FM020100 14004KT P6SM SCT035
     FM020800 16004KT 5SM BR SCT010 BKN250=



000
FTUS43 KDTX 011600 AAC
TAFFNT
TAF AMD
KFNT 011639Z 0117/0212 16005KT P6SM OVC035
     FM020100 12004KT P6SM SCT035
     FM020800 16004KT 3SM BR SCT008 BKN250=



000
FTUS43 KDTX 011600 AAC
TAFDET
TAF AMD
KDET 011638Z 0117/0212 11004KT P6SM BKN040
     FM020100 12005KT P6SM SCT035
     FM020600 16004KT 1SM BR OVC005=



000
FTUS43 KDTX 011600 AAE
TAFDTW
TAF AMD
KDTW 011637Z 0117/0218 12004KT P6SM BKN040
     FM020100 12005KT P6SM SCT035
     FM020600 16004KT 1SM BR OVC005
     FM021500 16007KT P6SM BKN060 OVC150=



000
FTUS43 KDTX 011500 AAB
TAFMBS
TAF AMD
KMBS 011542Z 0116/0212 20004KT 5SM BR OVC003
     FM011700 VRB04KT P6SM OVC008
     FM011900 14005KT P6SM BKN022 BKN035
     FM012000 14006KT P6SM SCT030 BKN040
     FM020100 14004KT P6SM SCT035
     FM020800 16004KT 5SM BR SCT010 BKN250=



000
FTUS43 KDTX 011500 AAD
TAFDTW
TAF AMD
KDTW 011529Z 0115/0218 11004KT P6SM SCT040 SCT080
     FM011600 12005KT P6SM SCT028 BKN040
     FM020100 12005KT P6SM SCT035
     FM020600 16004KT 1SM BR OVC005
     FM021500 16007KT P6SM BKN060 OVC150=



000
FTUS43 KDTX 011400 AAB
TAFFNT
TAF AMD
KFNT 011415Z 0114/0212 14005KT P6SM OVC035
     FM011900 14005KT P6SM SCT028 BKN040
     FM020100 12004KT P6SM SCT035
     FM020800 16004KT 3SM BR SCT008 BKN250=



000
FTUS43 KDTX 011400 AAC
TAFDTW
TAF AMD
KDTW 011414Z 0114/0218 11004KT P6SM SCT040 SCT080
     FM011500 12005KT P6SM SCT028 BKN040
     FM020100 12005KT P6SM SCT035
     FM020600 16004KT 1SM BR OVC005
     FM021500 16007KT P6SM BKN060 OVC150=



000
FTUS43 KDTX 011300 AAA
TAFMBS
TAF AMD
KMBS 011346Z 0114/0212 34004KT 2SM BR OVC003
     FM011500 VRB04KT P6SM OVC008
     FM011600 14005KT P6SM BKN022 BKN035
     FM011900 14006KT P6SM SCT030 BKN040
     FM020100 14004KT P6SM SCT035
     FM020800 16004KT 5SM BR SCT010 BKN250=



000
FTUS43 KDTX 011300 AAA
TAFFNT
TAF AMD
KFNT 011345Z 0114/0212 VRB04KT 3SM BR BKN010
     FM011600 14005KT P6SM BKN020 BKN035
     FM011900 14005KT P6SM SCT028 BKN040
     FM020100 12004KT P6SM SCT035
     FM020800 16004KT 3SM BR SCT008 BKN250=



000
FTUS43 KDTX 011300 AAB
TAFDET
TAF AMD
KDET 011343Z 0114/0212 11004KT P6SM OVC035
     FM011500 12005KT P6SM BKN030
     FM020100 12005KT P6SM SCT035
     FM020600 16004KT 1SM BR OVC005=



000
FTUS43 KDTX 011300 AAB
TAFDTW
TAF AMD
KDTW 011332Z 0114/0218 11004KT P6SM SCT030 SCT080
     FM011500 12005KT P6SM BKN030
     FM020100 12005KT P6SM SCT035
     FM020600 16004KT 1SM BR OVC005
     FM021500 16007KT P6SM BKN060 OVC150=



000
FTUS43 KDTX 011300 AAA
TAFDTW
TAF AMD
KDTW 011330Z 0114/0218 11004KT P6SM SCT040 SCT080
     FM011900 12005KT P6SM SCT028 BKN040
     FM020100 12005KT P6SM SCT035
     FM020600 16004KT 1SM BR OVC005
     FM021500 16007KT P6SM BKN060 OVC150=



000
FTUS43 KDTX 011200 AAA
TAFDET
TAF AMD
KDET 011239Z 0113/0212 00000KT 3SM BR OVC004
      TEMPO 0113/0114 1/2SM FG
     FM011400 VRB03KT P6SM BKN014 OVC022
     FM011700 11004KT P6SM BKN026 BKN040
     FM011900 12005KT P6SM SCT028 BKN040
     FM020100 12005KT P6SM SCT035
     FM020600 16004KT 1SM BR OVC005=



000
FTUS43 KDTX 011100
TAFMBS
TAF
KMBS 011120Z 0112/0212 34004KT 4SM BR OVC003
     FM011400 VRB04KT P6SM OVC008
     FM011600 14005KT P6SM BKN022 BKN035
     FM011900 14006KT P6SM SCT030 BKN040
     FM020100 14004KT P6SM SCT035
     FM020800 16004KT 5SM BR SCT010 BKN250=



000
FTUS43 KDTX 011100
TAFFNT
TAF
KFNT 011120Z 0112/0212 VRB03KT 1/2SM FG VV002
     FM011400 VRB04KT 4SM BR OVC006
     FM011600 14005KT P6SM BKN020 BKN035
     FM011900 14005KT P6SM SCT028 BKN040
     FM020100 12004KT P6SM SCT035
     FM020800 16004KT 3SM BR SCT008 BKN250=



000
FTUS43 KDTX 011100
TAFDET
TAF
KDET 011120Z 0112/0212 00000KT 1 1/2SM BR OVC004
      TEMPO 0112/0114 6SM BR SCT004 SCT030
     FM011400 VRB03KT P6SM BKN014 OVC022
     FM011700 11004KT P6SM BKN026 BKN040
     FM011900 12005KT P6SM SCT028 BKN040
     FM020100 12005KT P6SM SCT035
     FM020600 16004KT 1SM BR OVC005=



000
FTUS43 KDTX 011100
TAFDTW
TAF
KDTW 011120Z 0112/0218 00000KT P6SM OVC005
      TEMPO 0112/0114 SCT005 BKN030
     FM011400 VRB03KT P6SM BKN014 OVC022
     FM011700 11004KT P6SM BKN026 BKN040
     FM011900 12005KT P6SM SCT028 BKN040
     FM020100 12005KT P6SM SCT035
     FM020600 16004KT 1SM BR OVC005
     FM021500 16007KT P6SM BKN060 OVC150=



000
FTUS43 KDTX 010800 AAA
TAFMBS
TAF AMD
KMBS 010808Z 0108/0206 35004KT 2SM BR OVC003
     FM011400 08005KT P6SM SCT003 OVC008
     FM011900 12005KT P6SM BKN020
     FM020000 13003KT P6SM SCT022 BKN035=



000
FTUS43 KDTX 010800 AAA
TAFFNT
TAF AMD
KFNT 010807Z 0108/0206 02003KT 1SM BR OVC002
     FM011400 07005KT P6SM OVC008
     FM011900 11005KT P6SM BKN020
     FM020000 13003KT P6SM SCT022 BKN035=



000
FTUS43 KDTX 010800 AAA
TAFDET
TAF AMD
KDET 010803Z 0108/0206 00000KT 6SM BR OVC005
     FM011400 05005KT P6SM SCT006 OVC012
     FM011900 08005KT P6SM BKN022
     FM020000 12003KT P6SM SCT022 BKN035=



000
FTUS43 KDTX 010800 AAA
TAFDTW
TAF AMD
KDTW 010802Z 0108/0212 VRB03KT P6SM BKN012 OVC022
     FM011000 36003KT 6SM BR OVC006
     FM011400 05005KT P6SM SCT006 OVC016
     FM011900 08005KT P6SM BKN020
     FM020000 12003KT P6SM SCT022 BKN035=



000
FTUS43 KDTX 010500
TAFDET
TAF
KDET 010528Z 0106/0206 34004KT P6SM OVC008
     FM011400 05005KT P6SM SCT008 OVC018
     FM011900 08005KT P6SM BKN022
     FM020000 12003KT P6SM SCT022 BKN035
      AMD NOT SKED=



000
FTUS43 KDTX 010500
TAFDTW
TAF
KDTW 010528Z 0106/0212 34005KT P6SM OVC016
     FM010900 36003KT 4SM BR OVC006
     FM011400 05005KT P6SM SCT006 OVC016
     FM011900 08005KT P6SM BKN020
     FM020000 12003KT P6SM SCT022 BKN035=



000
FTUS43 KDTX 010500
TAFMBS
TAF
KMBS 010528Z 0106/0206 03005KT 6SM BR OVC006
     FM010900 04003KT 1 1/2SM BR OVC003
     FM011400 08005KT P6SM SCT003 OVC014
     FM011900 12005KT P6SM BKN020
     FM020000 13003KT P6SM SCT022 BKN035=



000
FTUS43 KDTX 010500
TAFFNT
TAF
KFNT 010528Z 0106/0206 01005KT 1SM BR OVC003
     FM010900 02003KT 3/4SM BR OVC002
     FM011400 07005KT P6SM OVC010
     FM011900 11005KT P6SM BKN020
     FM020000 13003KT P6SM SCT022 BKN035=



000
FTUS43 KDTX 010300 AAA
TAFFNT
TAF AMD
KFNT 010336Z 0104/0124 03008KT P6SM OVC007
     FM010600 01005KT 3SM BR OVC005
     FM010900 02003KT 1 1/2SM BR OVC003
     FM011400 07005KT P6SM SCT003 OVC014
     FM011900 11005KT P6SM BKN020=



000
FTUS43 KDTX 010300 AAA
TAFMBS
TAF AMD
KMBS 010336Z 0104/0124 03008KT P6SM OVC008
     FM010600 03005KT 3SM BR OVC006
     FM010900 04003KT 1 1/2SM BR OVC003
     FM011400 08005KT P6SM SCT003 OVC014
     FM011900 12005KT P6SM BKN020=



000
FTUS43 KDTX 010300 AAA
TAFDTW
TAF AMD
KDTW 010334Z 0104/0206 34005KT P6SM BKN018 OVC025
     FM010700 35004KT 5SM BR BKN012 OVC022
     FM010900 36003KT 4SM BR BKN006 OVC012
     FM011400 05005KT P6SM OVC016
     FM011900 08005KT P6SM BKN020
     FM020000 12003KT P6SM SCT022 BKN035=



000
FTUS43 KDTX 302300
TAFDTW
TAF
KDTW 302320Z 0100/0206 33008KT P6SM BKN018 OVC025
     FM010600 34005KT 5SM BR BKN012 OVC022
     FM010900 36003KT 4SM BR BKN006 OVC012
     FM011400 05005KT P6SM OVC016
     FM011900 08005KT P6SM BKN020
     FM020000 12003KT P6SM SCT022 BKN035=



000
FTUS43 KDTX 302300
TAFFNT
TAF
KFNT 302320Z 0100/0124 36008KT P6SM BKN012 OVC022
     FM010600 01005KT 3SM BR BKN009 OVC018
     FM010900 02003KT 1 1/2SM BR BKN003 OVC006
     FM011400 07005KT P6SM OVC014
     FM011900 11005KT P6SM BKN020=



000
FTUS43 KDTX 302300
TAFDET
TAF
KDET 302320Z 0100/0124 34008KT P6SM BKN018 OVC025
     FM010600 35005KT 6SM HZ BKN014 OVC024
     FM010900 36003KT 5SM BR BKN008 OVC014
     FM011400 05005KT P6SM OVC018
     FM011900 08005KT P6SM BKN022=



000
FTUS43 KDTX 302300
TAFMBS
TAF
KMBS 302320Z 0100/0124 02008KT P6SM BKN012 OVC022
     FM010600 03005KT 3SM BR BKN009 OVC018
     FM010900 04003KT 1 1/2SM BR BKN003 OVC006
     FM011400 08005KT P6SM OVC014
     FM011900 12005KT P6SM BKN020=



000
FTUS43 KDTX 302000 AAA
TAFDTW
TAF AMD
KDTW 302021Z 3020/0124 33008KT P6SM SCT015 OVC025
     FM010800 VRB03KT 4SM BR BKN006
     FM011400 05005KT P6SM OVC016
     FM011900 08005KT P6SM BKN020=



000
FTUS43 KDTX 301700
TAFFNT
TAF
KFNT 301734Z 3018/0118 36008KT P6SM SCT010 OVC015
      TEMPO 3018/3020 6SM -DZ OVC012
     FM302200 33005KT P6SM OVC018
     FM010800 VRB03KT 3SM BR OVC006
     FM011400 11005KT P6SM OVC016=



000
FTUS43 KDTX 301700
TAFMBS
TAF
KMBS 301734Z 3018/0118 36010KT P6SM BKN018 OVC040
      TEMPO 3018/3020 6SM -DZ OVC012
     FM302200 01005KT P6SM OVC018
     FM010800 VRB03KT 4SM BR OVC006
     FM011400 13005KT P6SM OVC016=



000
FTUS43 KDTX 301700
TAFDTW
TAF
KDTW 301734Z 3018/0124 35009KT P6SM OVC015
      TEMPO 3018/3020 6SM -DZ OVC012
     FM010800 VRB03KT 4SM BR BKN006
     FM011400 05005KT P6SM OVC016
     FM011900 08005KT P6SM BKN020=



000
FTUS43 KDTX 301700
TAFDET
TAF
KDET 301734Z 3018/0118 35009KT P6SM OVC015
      TEMPO 3018/3020 6SM -DZ OVC012
     FM010800 VRB03KT 4SM BR BKN006
     FM011400 05005KT P6SM OVC016=



000
FTUS43 KDTX 301400 AAB
TAFDTW
TAF AMD
KDTW 301435Z 3015/0118 33008KT 6SM -DZ BR OVC012
     FM301800 35009KT P6SM OVC015
     FM302300 01005KT P6SM OVC018
     FM010800 VRB03KT 2SM BR BKN006
     FM011400 04005KT P6SM BKN016=



000
FTUS43 KDTX 301300 AAA
TAFDTW
TAF AMD
KDTW 301357Z 3014/0118 35008KT 6SM -DZ BR OVC012
     FM301800 35009KT P6SM OVC015
     FM302300 01005KT P6SM OVC018
     FM010800 VRB03KT 2SM BR BKN006
     FM011400 04005KT P6SM BKN016=



000
FTUS43 KDTX 301100
TAFDET
TAF
KDET 301120Z 3012/0112 34008KT 6SM -DZ BR BKN008 OVC012
     FM301400 35009KT P6SM OVC015
     FM302300 01005KT P6SM OVC018
     FM010800 VRB03KT 4SM BR BKN006=



000
FTUS43 KDTX 301100
TAFMBS
TAF
KMBS 301120Z 3012/0112 35010KT P6SM BKN018 OVC040
     FM302300 04005KT P6SM OVC016
     FM010800 06003KT 3SM BR OVC006=



000
FTUS43 KDTX 301100
TAFDTW
TAF
KDTW 301120Z 3012/0118 34008KT 6SM -DZ BR BKN008 OVC012
     FM301400 35009KT P6SM OVC015
     FM302300 01005KT P6SM OVC018
     FM010800 VRB03KT 2SM BR BKN006
     FM011400 04005KT P6SM BKN016=



000
FTUS43 KDTX 301100
TAFFNT
TAF
KFNT 301120Z 3012/0112 34009KT 6SM -DZ BR BKN008 OVC012
     FM301400 35008KT P6SM SCT010 OVC015
     FM302300 02005KT P6SM OVC012
     FM010800 VRB03KT 2SM BR OVC005=



000
FTUS43 KDTX 300800 AAA
TAFDTW
TAF AMD
KDTW 300810Z 3008/0112 32008KT 5SM BR BKN008 OVC012
     FM301600 32010KT P6SM OVC015
     FM302000 34007KT P6SM BKN025
     FM010400 36005KT P6SM OVC015=



000
FTUS43 KDTX 300500
TAFFNT
TAF
KFNT 300522Z 3006/0106 32010KT 6SM BR SCT008 OVC012
     FM301400 32010KT P6SM OVC015
     FM301900 34007KT P6SM BKN025
     FM010200 36005KT P6SM OVC015=



000
FTUS43 KDTX 300500
TAFMBS
TAF
KMBS 300522Z 3006/0106 32010KT P6SM BKN014 OVC022
     FM301300 34010KT P6SM OVC015
     FM301700 34007KT P6SM BKN025
     FM010100 03005KT P6SM OVC015=



000
FTUS43 KDTX 300500
TAFDTW
TAF
KDTW 300522Z 3006/0112 32010KT 4SM -SHRA BR OVC008
     FM300800 32010KT 6SM BR OVC008
     FM301600 32010KT P6SM OVC015
     FM302000 34007KT P6SM BKN025
     FM010400 36005KT P6SM OVC015=



000
FTUS43 KDTX 300500
TAFDET
TAF
KDET 300522Z 3006/0106 32010KT 4SM -SHRA BR OVC008
     FM300800 32010KT 6SM BR OVC008
     FM301600 32010KT P6SM OVC015
     FM302000 34007KT P6SM BKN025
     FM010400 36005KT P6SM OVC015=



000
FTUS43 KDTX 300300 AAA
TAFDTW
TAF AMD
KDTW 300302Z 3003/0106 18005KT P6SM BKN060
     FM300500 32013KT 4SM -SHRA BR OVC010
     FM300800 32010KT P6SM OVC007
     FM301600 32010KT P6SM OVC015
     FM302000 34007KT P6SM BKN025
     FM010400 36005KT P6SM OVC015=



000
FTUS43 KDTX 292300
TAFMBS
TAF
KMBS 292332Z 3000/3024 32010G20KT 6SM -SHRA BR SCT025 OVC045
      TEMPO 3000/3001 4SM -SHRA BR OVC010
     FM300100 34010KT 6SM -SHRA BR OVC007
     FM301300 34010KT P6SM OVC015
     FM301700 34007KT P6SM BKN025=



000
FTUS43 KDTX 292300
TAFDET
TAF
KDET 292332Z 3000/3024 25007KT P6SM SCT050
     FM300600 32010G20KT 4SM -SHRA BR OVC010
     FM300900 32010KT P6SM OVC007
     FM301600 32010KT P6SM OVC015
     FM302000 34007KT P6SM BKN025=



000
FTUS43 KDTX 292300
TAFFNT
TAF
KFNT 292332Z 3000/3024 24007KT P6SM SCT050 BKN120
     FM300200 32010G20KT 4SM -SHRA BR OVC010
     FM300500 32010KT 6SM -DZ BR OVC008
     FM301400 32010KT P6SM OVC015
     FM301900 34007KT P6SM BKN025=



000
FTUS43 KDTX 292300
TAFDTW
TAF
KDTW 292332Z 3000/0106 16005KT P6SM SCT050
     FM300100 25007KT P6SM SCT050
     FM300600 32010G20KT 4SM -SHRA BR OVC010
     FM300900 32010KT P6SM OVC007
     FM301600 32010KT P6SM OVC015
     FM302000 34007KT P6SM BKN025
     FM010400 36005KT P6SM OVC015=



000
FTUS43 KDTX 292200 AAA
TAFFNT
TAF AMD
KFNT 292203Z 2922/3018 25010KT P6SM SCT050
     FM300200 32010G20KT 4SM -SHRA BR OVC010
     FM300500 32010KT 6SM -DZ BR OVC008
     FM301300 34008KT P6SM OVC015=



000
FTUS43 KDTX 292200 AAA
TAFMBS
TAF AMD
KMBS 292201Z 2922/3018 25010KT P6SM SCT050 BKN120
     FM300000 32010G20KT 4SM -SHRA BR OVC010
     FM300500 34008KT P6SM OVC010
     FM301300 36008KT P6SM OVC015=



000
FTUS43 KDTX 292100 AAA
TAFDTW
TAF AMD
KDTW 292102Z 2921/3024 28007KT P6SM FEW060
     FM300700 33010KT 5SM -SHRA BR OVC015
     FM301000 33008KT P6SM OVC015
     FM302000 33007KT P6SM OVC022=



000
FTUS43 KDTX 291700
TAFMBS
TAF
KMBS 291731Z 2918/3018 26008KT P6SM SCT070
     FM300200 34012KT 5SM -SHRA BR BKN014 OVC035
     FM300500 34008KT P6SM OVC010
     FM301300 35008KT P6SM OVC015=



000
FTUS43 KDTX 291700
TAFDTW
TAF
KDTW 291731Z 2918/3024 25006KT P6SM SCT050
     FM300700 33010KT 5SM -SHRA BR BKN018 OVC040
     FM301000 33008KT P6SM OVC016
     FM302000 33007KT P6SM OVC022=



000
FTUS43 KDTX 291700
TAFFNT
TAF
KFNT 291731Z 2918/3018 26007KT P6SM SCT050
     FM300400 33011KT 5SM -SHRA BR BKN015 OVC035
     FM300700 32007KT 6SM -DZ OVC008
     FM301300 34008KT P6SM OVC015=



000
FTUS43 KDTX 291700
TAFDET
TAF
KDET 291731Z 2918/3018 24006KT P6SM SCT050
     FM300700 33010KT 5SM -SHRA BR BKN018 OVC040
     FM301000 33008KT P6SM OVC016=



000
FTUS43 KDTX 291400 AAA
TAFDTW
TAF AMD
KDTW 291442Z 2915/3018 25006KT P6SM SKC
     FM300000 23006KT P6SM SCT060
     FM300700 33010KT 6SM -SHRA BR BKN022 OVC040
     FM301000 32008KT P6SM OVC016=



000
FTUS43 KDTX 291100
TAFFNT
TAF
KFNT 291121Z 2912/3012 24004KT 6SM BR SKC
      TEMPO 2912/2913 2SM BR SCT003
     FM291900 26007KT P6SM SCT060
     FM300400 33013KT 5SM SHRA BR BKN015 OVC040
     FM300700 32006KT 6SM -DZ OVC008=



000
FTUS43 KDTX 291100
TAFDET
TAF
KDET 291121Z 2912/3012 24005KT P6SM SKC
     FM300700 33010KT 6SM -SHRA BR BKN022 OVC040
     FM301000 32008KT P6SM OVC016=



000
FTUS43 KDTX 291100
TAFMBS
TAF
KMBS 291121Z 2912/3012 23006KT P6SM SKC
     FM291800 24010KT P6SM SCT050 SCT080
     FM300200 34014KT 5SM SHRA BR BKN014 OVC040
     FM300500 32006KT P6SM OVC010=



000
FTUS43 KDTX 291100
TAFDTW
TAF
KDTW 291121Z 2912/3018 24005KT P6SM SKC
      TEMPO 2912/2913 5SM BR
     FM300700 33010KT 6SM -SHRA BR BKN022 OVC040
     FM301000 32008KT P6SM OVC016=



000
FTUS43 KDTX 291000 AAB
TAFFNT
TAF AMD
KFNT 291014Z 2910/3006 00000KT 2SM BR SKC
      TEMPO 2910/2913 1SM BR
     FM291400 24007KT P6SM SKC
     FM300100 30010KT 3SM -SHRA BR OVC015=



000
FTUS43 KDTX 290800 AAA
TAFMBS
TAF AMD
KMBS 290809Z 2908/3006 26003KT P6SM SKC
      TEMPO 2910/2913 4SM BR
     FM291400 24010KT P6SM SKC
     FM292300 30010KT 3SM -SHRA BR OVC015=



000
FTUS43 KDTX 290800 AAA
TAFFNT
TAF AMD
KFNT 290808Z 2908/3006 00000KT 2SM BR BKN003
      TEMPO 2909/2913 1/2SM FG VV002
     FM291400 24007KT P6SM SKC
     FM300100 30010KT 3SM -SHRA BR OVC015=



000
FTUS43 KDTX 290800 AAA
TAFDTW
TAF AMD
KDTW 290803Z 2908/3012 00000KT 6SM BR BKN250
      TEMPO 2910/2913 4SM BR SCT250
     FM291400 26007KT P6SM SKC
     FM300500 30010KT 3SM -SHRA BR OVC015
     FM300800 33010KT P6SM BKN025=



    US Dept of Commerce
    National Oceanic and Atmospheric Administration
    National Weather Service
    1325 East West Highway
    Silver Spring, MD 20910
    Page Author: NWS Internet Services Team
Disclaimer
Information Quality
Credits
Glossary
Privacy Policy
Freedom of Information Act (FOIA)
About Us
Career Opportunities